Time;durP1;ratioP1;P1;durP2;ratioP2;P2;SDS_P1;SDS_P2;PMS_P1;PMS_P2;Temp;Humidity;BMP_temperature;BMP_pressure;BME280_temperature;BME280_humidity;BME280_pressure;Samples;Min_cycle;Max_cycle;Signal;HPM_P1;HPM_P2
2023/10/12 00:01:57;;;;;;;22.27;21.27;;;22.20;99.90;;;;;;5062073;28;20475;-62
2023/10/12 00:04:25;;;;;;;22.00;21.00;;;22.20;99.90;;;;;;5060374;28;20465;-64
2023/10/12 00:06:52;;;;;;;22.23;21.17;;;22.30;99.90;;;;;;5059224;28;20475;-63
2023/10/12 00:09:20;;;;;;;21.10;19.90;;;22.20;99.90;;;;;;5060455;28;20483;-62
2023/10/12 00:11:56;;;;;;;21.93;20.70;;;22.20;99.90;;;;;;5061989;28;20451;-62
2023/10/12 00:14:23;;;;;;;22.43;20.60;;;22.20;99.90;;;;;;5060367;28;20487;-62
2023/10/12 00:16:52;;;;;;;23.93;22.73;;;22.20;99.90;;;;;;5059236;28;20900;-63
2023/10/12 00:19:23;;;;;;;22.97;21.67;;;22.20;99.90;;;;;;5060219;28;20506;-62
2023/10/12 00:21:50;;;;;;;21.80;20.70;;;22.20;99.90;;;;;;5062019;28;20874;-62
2023/10/12 00:24:18;;;;;;;23.57;22.30;;;22.20;99.90;;;;;;5067336;28;20509;-62
2023/10/12 00:26:45;;;;;;;22.77;21.57;;;22.20;99.90;;;;;;5062203;28;20452;-63
2023/10/12 00:29:13;;;;;;;24.57;23.00;;;22.20;99.90;;;;;;5065743;28;20454;-62
2023/10/12 00:31:43;;;;;;;22.50;20.90;;;22.20;99.90;;;;;;5062705;28;20437;-63
2023/10/12 00:34:12;;;;;;;22.00;20.80;;;22.10;99.90;;;;;;5062436;28;20533;-62
2023/10/12 00:36:40;;;;;;;23.00;21.93;;;22.10;99.90;;;;;;5054865;28;20448;-63
2023/10/12 00:39:10;;;;;;;21.63;20.53;;;22.10;99.90;;;;;;5065333;28;20450;-62
2023/10/12 00:41:44;;;;;;;22.30;21.20;;;22.10;99.90;;;;;;5054589;28;20447;-62
2023/10/12 00:44:12;;;;;;;23.07;21.87;;;22.10;99.90;;;;;;5062509;28;20521;-62
2023/10/12 00:46:47;;;;;;;23.17;21.97;;;22.10;99.90;;;;;;5054771;28;20520;-62
2023/10/12 00:49:21;;;;;;;24.50;23.10;;;22.10;99.90;;;;;;5062779;28;20466;-62
2023/10/12 00:51:51;;;;;;;23.33;22.03;;;22.10;99.90;;;;;;5062433;28;20437;-62
2023/10/12 00:54:27;;;;;;;20.30;19.47;;;22.10;99.90;;;;;;5062945;28;20521;-62
2023/10/12 00:57:01;;;;;;;21.37;20.27;;;22.10;99.90;;;;;;5065731;28;20435;-62
2023/10/12 00:59:31;;;;;;;23.53;22.33;;;22.00;99.90;;;;;;5062701;28;20502;-63
2023/10/12 01:02:00;;;;;;;24.23;23.00;;;22.10;99.90;;;;;;5062106;28;20924;-62
2023/10/12 01:04:27;;;;;;;22.47;21.17;;;22.00;99.90;;;;;;5063930;28;20465;-62
2023/10/12 01:06:59;;;;;;;22.20;21.17;;;22.00;99.90;;;;;;5065577;28;20439;-62
2023/10/12 01:09:29;;;;;;;22.00;20.90;;;22.00;99.90;;;;;;5054589;28;20452;-62
2023/10/12 01:12:00;;;;;;;22.20;21.10;;;22.00;99.90;;;;;;5055873;28;20456;-63
2023/10/12 01:14:29;;;;;;;21.37;20.30;;;22.00;99.90;;;;;;5057103;28;20570;-62
2023/10/12 01:16:59;;;;;;;23.20;22.07;;;22.00;99.90;;;;;;5061814;28;20470;-62
2023/10/12 01:19:34;;;;;;;23.07;21.87;;;22.00;99.90;;;;;;5065887;28;20451;-63
2023/10/12 01:22:11;;;;;;;21.70;20.50;;;22.00;99.90;;;;;;5061858;28;20867;-63
2023/10/12 01:24:44;;;;;;;24.67;23.23;;;22.00;99.90;;;;;;5053524;28;20448;-62
2023/10/12 01:27:13;;;;;;;24.43;22.80;;;22.00;99.90;;;;;;5061811;28;20444;-62
2023/10/12 01:29:41;;;;;;;22.50;21.43;;;22.00;99.90;;;;;;5055019;28;20468;-63
2023/10/12 01:32:27;;;;;;;21.77;20.77;;;22.00;99.90;;;;;;5059401;28;20468;-63
2023/10/12 01:34:56;;;;;;;23.10;21.80;;;22.00;99.90;;;;;;5054913;28;20483;-62
2023/10/12 01:37:26;;;;;;;22.93;21.73;;;21.90;99.90;;;;;;5063474;28;20443;-63
2023/10/12 01:39:57;;;;;;;21.80;20.80;;;21.90;99.90;;;;;;5060804;28;20455;-62
2023/10/12 01:42:35;;;;;;;22.33;21.33;;;21.90;99.90;;;;;;5062914;28;20441;-62
2023/10/12 01:45:03;;;;;;;23.93;22.40;;;21.90;99.90;;;;;;5064703;28;20441;-63
2023/10/12 01:47:36;;;;;;;23.03;21.93;;;21.90;99.90;;;;;;5062339;28;20867;-63
2023/10/12 01:50:05;;;;;;;22.37;21.10;;;21.90;99.90;;;;;;5060680;28;20815;-62
2023/10/12 01:52:35;;;;;;;23.20;22.00;;;21.90;99.90;;;;;;5063651;28;20448;-62
2023/10/12 01:55:15;;;;;;;21.67;20.67;;;21.90;99.90;;;;;;5064500;28;20870;-63
2023/10/12 01:57:47;;;;;;;20.97;19.87;;;21.90;99.90;;;;;;5053494;28;20471;-62
2023/10/12 02:00:16;;;;;;;22.33;21.23;;;21.90;99.90;;;;;;5055593;28;20459;-65
2023/10/12 02:02:50;;;;;;;22.80;21.70;;;21.90;99.90;;;;;;5059321;28;20451;-62
2023/10/12 02:05:24;;;;;;;21.80;20.40;;;21.90;99.90;;;;;;5063769;28;20443;-62
2023/10/12 02:07:52;;;;;;;22.20;21.00;;;21.90;99.90;;;;;;5060987;28;20432;-62
2023/10/12 02:10:19;;;;;;;21.73;20.40;;;21.90;99.90;;;;;;5060788;28;20931;-62
2023/10/12 02:12:47;;;;;;;23.10;21.90;;;21.90;99.90;;;;;;5064202;28;20463;-62
2023/10/12 02:15:15;;;;;;;22.83;21.53;;;21.90;99.90;;;;;;5064070;28;20564;-62
2023/10/12 02:17:49;;;;;;;22.70;21.43;;;21.80;99.90;;;;;;5052999;28;20469;-62
2023/10/12 02:20:18;;;;;;;22.47;21.37;;;21.80;99.90;;;;;;5060312;28;21036;-62
2023/10/12 02:22:46;;;;;;;22.13;21.03;;;21.80;99.90;;;;;;5063923;28;20834;-62
2023/10/12 02:25:18;;;;;;;23.03;21.60;;;21.90;99.90;;;;;;5064012;28;20856;-62
2023/10/12 02:27:54;;;;;;;22.37;21.27;;;21.90;99.90;;;;;;5053041;28;20447;-62
2023/10/12 02:30:23;;;;;;;23.90;22.60;;;21.80;99.90;;;;;;5059800;28;20528;-63
2023/10/12 02:33:00;;;;;;;21.50;20.30;;;21.80;99.90;;;;;;5060377;28;20445;-62
2023/10/12 02:35:36;;;;;;;20.83;19.93;;;21.80;99.90;;;;;;5061700;28;20568;-63
2023/10/12 02:38:06;;;;;;;22.17;20.90;;;21.80;99.90;;;;;;5063247;28;20474;-63
2023/10/12 02:40:35;;;;;;;21.17;20.17;;;21.80;99.90;;;;;;5061321;28;20998;-62
2023/10/12 02:43:06;;;;;;;21.60;20.03;;;21.80;99.90;;;;;;5060181;28;20976;-62
2023/10/12 02:45:34;;;;;;;22.00;20.77;;;21.70;99.90;;;;;;5061755;28;20441;-63
2023/10/12 02:48:05;;;;;;;21.43;20.23;;;21.80;99.90;;;;;;5063221;28;20475;-62
2023/10/12 02:50:38;;;;;;;21.80;20.80;;;21.80;99.90;;;;;;5061262;28;20444;-62
2023/10/12 02:53:12;;;;;;;21.60;20.50;;;21.80;99.90;;;;;;5060009;28;20496;-62
2023/10/12 02:55:48;;;;;;;21.83;20.73;;;21.80;99.90;;;;;;5063088;28;20439;-62
2023/10/12 02:58:23;;;;;;;21.00;20.10;;;21.80;99.90;;;;;;5062856;28;20458;-63
2023/10/12 03:00:55;;;;;;;21.37;20.37;;;21.70;99.90;;;;;;5052930;28;21070;-62
2023/10/12 03:03:25;;;;;;;22.40;21.30;;;21.70;99.90;;;;;;5060254;28;21006;-63
2023/10/12 03:05:53;;;;;;;22.87;21.57;;;21.70;99.90;;;;;;5063430;28;20439;-62
2023/10/12 03:08:23;;;;;;;20.40;19.30;;;21.70;99.90;;;;;;5062095;28;20455;-62
2023/10/12 03:13:55;;;;;;;22.27;21.20;;;21.70;99.90;;;;;;5023124;28;20472;-62
2023/10/12 03:16:22;;;;;;;21.70;20.70;;;21.70;99.90;;;;;;5060232;28;20444;-63
2023/10/12 03:18:57;;;;;;;21.90;20.80;;;21.70;99.90;;;;;;5057608;28;20485;-64
2023/10/12 03:21:27;;;;;;;22.00;21.10;;;21.70;99.90;;;;;;5060475;28;20484;-63
2023/10/12 03:23:56;;;;;;;22.13;20.83;;;21.70;99.90;;;;;;5062948;28;20826;-63
2023/10/12 03:26:25;;;;;;;23.97;22.67;;;21.70;99.90;;;;;;5062191;28;20450;-62
2023/10/12 03:28:53;;;;;;;21.40;20.50;;;21.70;99.90;;;;;;5059123;28;20801;-63
2023/10/12 03:31:24;;;;;;;22.17;21.20;;;21.70;99.90;;;;;;5059755;28;20463;-62
2023/10/12 03:33:55;;;;;;;21.80;20.60;;;21.70;99.90;;;;;;5062683;28;20566;-62
2023/10/12 03:36:26;;;;;;;22.27;21.20;;;21.70;99.90;;;;;;5062520;28;20439;-63
2023/10/12 03:39:25;;;;;;;21.53;20.43;;;21.70;99.90;;;;;;5059012;28;20448;-62
2023/10/12 03:41:55;;;;;;;23.60;22.40;;;21.70;99.90;;;;;;5052539;28;20451;-62
2023/10/12 03:44:35;;;;;;;23.70;22.60;;;21.70;99.90;;;;;;5059662;28;20460;-62
2023/10/12 03:47:05;;;;;;;23.47;22.00;;;21.70;99.90;;;;;;5061650;28;20505;-64
2023/10/12 03:49:35;;;;;;;21.60;20.50;;;21.60;99.90;;;;;;5061176;28;20452;-63
2023/10/12 03:52:13;;;;;;;21.27;20.17;;;21.60;99.90;;;;;;5062776;28;20518;-62
2023/10/12 03:54:55;;;;;;;23.43;22.50;;;21.70;99.90;;;;;;5059491;28;20487;-62
2023/10/12 03:57:30;;;;;;;22.20;21.10;;;21.70;99.90;;;;;;5063146;28;20475;-62
2023/10/12 04:00:25;;;;;;;21.60;20.40;;;21.60;99.90;;;;;;5066804;28;20449;-61
2023/10/12 04:02:56;;;;;;;23.13;22.03;;;21.70;99.90;;;;;;5055358;28;20432;-63
2023/10/12 04:05:44;;;;;;;23.53;22.43;;;21.70;99.90;;;;;;5063034;28;20476;-63
2023/10/12 04:14:09;;;;;;;22.10;21.03;;;21.70;99.90;;;;;;5054955;28;20523;-62
2023/10/12 04:16:40;;;;;;;23.10;21.93;;;21.60;99.90;;;;;;5068643;28;20512;-63
2023/10/12 04:19:09;;;;;;;24.40;23.10;;;21.60;99.90;;;;;;5062969;28;20444;-62
2023/10/12 04:21:36;;;;;;;23.00;21.90;;;21.60;99.90;;;;;;5064964;28;20451;-62
2023/10/12 04:27:09;;;;;;;22.33;21.40;;;21.60;99.90;;;;;;5056424;28;20493;-62
2023/10/12 04:29:39;;;;;;;21.90;20.90;;;21.60;99.90;;;;;;5064920;28;20451;-62
2023/10/12 04:32:15;;;;;;;22.93;21.83;;;21.60;99.90;;;;;;5066112;28;20440;-62
2023/10/12 04:34:49;;;;;;;21.60;20.40;;;21.70;99.90;;;;;;5062774;28;20475;-62
2023/10/12 04:37:22;;;;;;;23.30;22.20;;;21.70;99.90;;;;;;5060713;28;20886;-63
2023/10/12 04:39:56;;;;;;;24.10;22.90;;;21.70;99.90;;;;;;5064572;28;20477;-62
2023/10/12 04:42:32;;;;;;;25.90;23.40;;;21.80;99.90;;;;;;5065346;28;20442;-63
2023/10/12 04:45:23;;;;;;;24.90;22.77;;;21.80;99.90;;;;;;5062470;28;20519;-62
2023/10/12 04:47:55;;;;;;;27.37;24.93;;;21.80;99.90;;;;;;5063982;28;21011;-62
2023/10/12 04:50:42;;;;;;;21.27;19.53;;;21.80;99.90;;;;;;5050937;28;20517;-62
2023/10/12 04:53:11;;;;;;;22.20;20.80;;;21.80;99.90;;;;;;5065566;28;20513;-62
2023/10/12 04:55:40;;;;;;;25.57;23.40;;;21.80;99.90;;;;;;5063117;28;20485;-62
2023/10/12 04:58:13;;;;;;;23.63;21.70;;;21.80;99.90;;;;;;5062270;28;20472;-62
2023/10/12 05:00:54;;;;;;;23.30;21.70;;;21.80;99.90;;;;;;5064835;28;20444;-62
2023/10/12 05:03:33;;;;;;;27.30;25.27;;;21.80;99.90;;;;;;5065180;28;20471;-62
2023/10/12 05:06:04;;;;;;;23.13;21.77;;;21.80;99.90;;;;;;5055821;28;20781;-61
2023/10/12 05:08:33;;;;;;;23.90;22.30;;;21.80;99.90;;;;;;5062523;28;20543;-61
2023/10/12 05:11:00;;;;;;;22.77;21.47;;;21.80;99.90;;;;;;5065342;28;20443;-61
2023/10/12 05:13:28;;;;;;;23.43;22.00;;;21.80;99.90;;;;;;5064152;28;20520;-61
2023/10/12 05:15:56;;;;;;;21.27;19.87;;;21.80;99.90;;;;;;5061936;28;20925;-62
2023/10/12 05:18:25;;;;;;;21.43;20.00;;;21.70;99.90;;;;;;5061950;28;20506;-62
2023/10/12 05:20:52;;;;;;;21.00;19.80;;;21.70;99.90;;;;;;5065136;28;20898;-62
2023/10/12 05:23:19;;;;;;;22.53;21.23;;;21.80;99.90;;;;;;5064870;28;20495;-61
2023/10/12 05:25:53;;;;;;;21.30;20.07;;;21.80;99.90;;;;;;5061753;28;20467;-61
2023/10/12 05:28:21;;;;;;;24.07;22.57;;;21.70;99.90;;;;;;5061616;28;20440;-62
2023/10/12 05:30:51;;;;;;;23.13;21.37;;;21.80;99.90;;;;;;5053480;28;20468;-62
2023/10/12 05:36:08;;;;;;;23.20;21.80;;;21.80;99.90;;;;;;5075988;22;20570;-65
2023/10/12 05:38:36;;;;;;;21.70;20.60;;;21.70;99.90;;;;;;5033367;28;20456;-64
2023/10/12 05:41:04;;;;;;;22.57;21.07;;;21.80;99.90;;;;;;5033217;28;20449;-64
2023/10/12 05:43:33;;;;;;;20.83;19.73;;;21.70;99.90;;;;;;5033066;28;20873;-64
2023/10/12 05:46:04;;;;;;;22.77;21.77;;;21.80;99.90;;;;;;5033176;28;20437;-64
2023/10/12 05:48:34;;;;;;;23.27;22.10;;;21.70;99.90;;;;;;5023937;28;20446;-64
2023/10/12 05:51:04;;;;;;;21.73;20.77;;;21.70;99.90;;;;;;5021576;28;20454;-64
2023/10/12 05:53:34;;;;;;;24.67;21.90;;;21.70;99.90;;;;;;5022176;28;20446;-64
2023/10/12 05:56:01;;;;;;;21.77;20.33;;;21.70;99.90;;;;;;5024761;28;20480;-64
2023/10/12 05:58:28;;;;;;;20.90;19.83;;;21.80;99.90;;;;;;5023966;28;20441;-64
2023/10/12 06:00:56;;;;;;;20.20;19.30;;;21.80;99.90;;;;;;5021208;28;20473;-64
2023/10/12 06:03:23;;;;;;;21.23;20.03;;;21.70;99.90;;;;;;5021079;28;20844;-64
2023/10/12 06:05:51;;;;;;;21.07;19.87;;;21.70;99.90;;;;;;5021201;28;20431;-64
2023/10/12 06:08:19;;;;;;;23.00;21.70;;;21.70;99.90;;;;;;5021178;28;20446;-64
2023/10/12 06:10:46;;;;;;;23.57;21.90;;;21.70;99.90;;;;;;5024072;28;20445;-64
2023/10/12 06:13:15;;;;;;;20.50;19.60;;;21.80;99.90;;;;;;5024322;28;20469;-65
2023/10/12 06:15:43;;;;;;;22.00;20.90;;;21.70;99.90;;;;;;5021759;28;20473;-65
2023/10/12 06:18:13;;;;;;;20.83;19.87;;;21.70;99.90;;;;;;5020924;28;20447;-64
2023/10/12 06:20:42;;;;;;;25.00;23.70;;;21.80;99.90;;;;;;5023240;28;20515;-64
2023/10/12 06:23:13;;;;;;;21.93;21.03;;;21.80;99.90;;;;;;5024131;28;20663;-64
2023/10/12 06:25:43;;;;;;;23.27;22.03;;;21.70;99.90;;;;;;5022041;28;20448;-64
2023/10/12 06:28:17;;;;;;;22.50;21.37;;;21.70;99.90;;;;;;5020789;28;20442;-65
2023/10/12 06:30:44;;;;;;;22.03;20.93;;;21.70;99.90;;;;;;5023319;28;20529;-65
2023/10/12 06:33:14;;;;;;;22.93;21.87;;;21.70;99.90;;;;;;5024001;28;20546;-64
2023/10/12 06:35:58;;;;;;;21.20;20.10;;;21.70;99.90;;;;;;5021624;28;20845;-65
2023/10/12 06:38:38;;;;;;;22.30;21.30;;;21.70;99.90;;;;;;5020603;28;20468;-65
2023/10/12 06:43:58;;;;;;;22.53;21.07;;;21.70;99.90;;;;;;5020605;28;20608;-64
2023/10/12 06:46:27;;;;;;;22.33;21.00;;;21.70;99.90;;;;;;5020341;28;20508;-65
2023/10/12 06:49:00;;;;;;;22.47;21.37;;;21.70;99.90;;;;;;5023917;28;20448;-64
2023/10/12 06:51:29;;;;;;;22.13;21.03;;;21.70;99.90;;;;;;5023618;28;20440;-64
2023/10/12 06:54:17;;;;;;;23.03;22.07;;;21.70;99.90;;;;;;5020179;28;21000;-64
2023/10/12 06:56:49;;;;;;;23.70;22.50;;;21.70;99.90;;;;;;5022851;28;20935;-65
2023/10/12 06:59:21;;;;;;;22.50;21.37;;;21.70;99.90;;;;;;5023826;28;20451;-64
2023/10/12 07:02:09;;;;;;;22.77;21.60;;;21.70;99.90;;;;;;5020534;28;20441;-64
2023/10/12 07:04:38;;;;;;;22.63;21.70;;;21.70;99.90;;;;;;5021272;28;20961;-64
2023/10/12 07:07:07;;;;;;;21.13;20.10;;;21.70;99.90;;;;;;5023390;28;20986;-64
2023/10/12 07:09:39;;;;;;;22.43;21.47;;;21.70;99.90;;;;;;5022282;28;20441;-64
2023/10/12 07:12:07;;;;;;;23.40;22.37;;;21.70;99.90;;;;;;5020085;28;20793;-64
2023/10/12 07:14:38;;;;;;;22.40;21.47;;;21.70;99.90;;;;;;5020721;28;20437;-64
2023/10/12 07:17:07;;;;;;;22.37;21.37;;;21.70;99.90;;;;;;5023468;28;20887;-64
2023/10/12 07:19:34;;;;;;;24.03;22.70;;;21.70;99.90;;;;;;5022341;28;20875;-64
2023/10/12 07:22:07;;;;;;;22.33;21.30;;;21.70;99.90;;;;;;5020117;28;20438;-64
2023/10/12 07:24:38;;;;;;;24.47;23.37;;;21.70;99.90;;;;;;5020757;28;20446;-64
2023/10/12 07:27:11;;;;;;;21.27;20.47;;;21.70;99.90;;;;;;5023221;28;21014;-64
2023/10/12 07:29:39;;;;;;;23.27;22.33;;;21.70;99.90;;;;;;5021456;28;20531;-64
2023/10/12 07:32:18;;;;;;;22.10;21.20;;;21.70;99.90;;;;;;5019589;28;20477;-64
2023/10/12 07:34:52;;;;;;;21.53;20.43;;;21.70;99.90;;;;;;5021924;28;20533;-64
2023/10/12 07:37:19;;;;;;;23.77;22.67;;;21.70;99.90;;;;;;5023256;28;20950;-64
2023/10/12 07:39:50;;;;;;;22.73;21.33;;;21.70;99.90;;;;;;5020590;28;20867;-64
2023/10/12 07:42:25;;;;;;;21.83;21.03;;;21.70;99.90;;;;;;5019642;28;21082;-64
2023/10/12 07:44:55;;;;;;;22.20;21.07;;;21.70;99.90;;;;;;5022808;28;20464;-64
2023/10/12 07:47:31;;;;;;;22.90;21.57;;;21.70;99.90;;;;;;5023039;28;20469;-64
2023/10/12 07:50:08;;;;;;;22.73;21.73;;;21.70;99.90;;;;;;5019687;28;20442;-64
2023/10/12 07:52:44;;;;;;;22.43;21.40;;;21.70;99.90;;;;;;5020520;28;20445;-64
2023/10/12 07:55:13;;;;;;;22.73;21.60;;;21.70;99.90;;;;;;5022764;28;20480;-63
2023/10/12 07:57:40;;;;;;;22.47;21.50;;;21.70;99.90;;;;;;5021283;28;20461;-64
2023/10/12 08:00:34;;;;;;;23.23;22.30;;;21.70;99.90;;;;;;5019529;28;20442;-64
2023/10/12 08:03:19;;;;;;;20.83;20.03;;;21.70;99.90;;;;;;5019536;28;20799;-64
2023/10/12 08:06:06;;;;;;;21.80;20.53;;;21.70;99.90;;;;;;5021759;28;20438;-64
2023/10/12 08:08:35;;;;;;;21.87;20.97;;;21.70;99.90;;;;;;5022248;28;20437;-64
2023/10/12 08:11:23;;;;;;;23.17;22.03;;;21.70;99.90;;;;;;5019548;28;20525;-64
2023/10/12 08:13:49;;;;;;;22.50;21.50;;;21.70;99.90;;;;;;5019318;28;20478;-64
2023/10/12 08:16:25;;;;;;;24.40;23.30;;;21.70;99.90;;;;;;5019290;28;20489;-64
2023/10/12 08:21:33;;;;;;;23.53;21.90;;;21.70;99.90;;;;;;5022016;28;20425;-64
2023/10/12 08:24:09;;;;;;;22.03;21.07;;;21.70;99.90;;;;;;5019228;28;20945;-65
2023/10/12 08:30:13;;;;;;;22.80;21.70;;;21.70;99.90;;;;;;5019966;28;20445;-64
2023/10/12 08:32:14;;;;;;;24.57;23.53;;;21.70;99.90;;;;;;5019079;28;20446;-64
2023/10/12 08:35:10;;;;;;;24.70;23.33;;;21.70;99.90;;;;;;5020570;28;20449;-65
2023/10/12 08:38:09;;;;;;;22.67;21.63;;;21.60;99.90;;;;;;5022118;28;20501;-65
2023/10/12 08:40:30;;;;;;;22.20;21.30;;;21.70;99.90;;;;;;5019215;28;20509;-65
2023/10/12 08:43:06;;;;;;;22.43;21.33;;;21.60;99.90;;;;;;5020606;28;20446;-64
2023/10/12 08:45:36;;;;;;;23.77;22.70;;;21.70;99.90;;;;;;5022856;28;20441;-64
2023/10/12 08:48:03;;;;;;;22.00;21.00;;;21.60;99.90;;;;;;5026098;28;20496;-65
2023/10/12 08:50:49;;;;;;;24.07;22.93;;;21.70;99.90;;;;;;5025889;28;20956;-65
2023/10/12 08:53:23;;;;;;;23.73;22.77;;;21.70;99.90;;;;;;5022449;28;20470;-64
2023/10/12 08:55:53;;;;;;;23.60;22.60;;;21.70;99.90;;;;;;5024877;28;20520;-64
2023/10/12 08:58:38;;;;;;;24.20;22.87;;;21.70;99.90;;;;;;5025904;28;20467;-65
2023/10/12 09:01:09;;;;;;;23.00;22.00;;;21.60;99.90;;;;;;5022562;28;20449;-65
2023/10/12 09:03:44;;;;;;;21.60;20.77;;;21.70;99.90;;;;;;5022845;28;20450;-64
2023/10/12 09:06:36;;;;;;;22.23;21.23;;;21.70;99.90;;;;;;5025833;28;20808;-66
2023/10/12 09:09:05;;;;;;;23.30;22.30;;;21.70;99.90;;;;;;5022367;28;20442;-65
2023/10/12 09:11:33;;;;;;;23.77;22.57;;;21.70;99.90;;;;;;5022248;28;20454;-64
2023/10/12 09:14:11;;;;;;;22.67;21.57;;;21.70;99.90;;;;;;5025449;28;20511;-64
2023/10/12 09:16:38;;;;;;;20.90;20.10;;;21.60;99.90;;;;;;5024350;28;20538;-64
2023/10/12 09:19:23;;;;;;;23.47;22.23;;;21.70;99.90;;;;;;5022046;28;20948;-64
2023/10/12 09:21:59;;;;;;;20.70;19.70;;;21.70;99.90;;;;;;5024462;28;20988;-64
2023/10/12 09:24:29;;;;;;;23.43;22.43;;;21.70;99.90;;;;;;5025342;28;20445;-64
2023/10/12 09:26:58;;;;;;;24.20;23.00;;;21.70;99.90;;;;;;5021858;28;20454;-64
2023/10/12 09:29:27;;;;;;;23.23;22.33;;;21.70;99.90;;;;;;5022005;28;20540;-65
2023/10/12 09:32:12;;;;;;;22.57;21.57;;;21.70;99.90;;;;;;5024738;28;20819;-64
2023/10/12 09:35:02;;;;;;;24.10;23.00;;;21.70;99.90;;;;;;5024050;28;20809;-64
2023/10/12 09:37:33;;;;;;;21.60;20.70;;;21.70;99.90;;;;;;5021594;28;21038;-65
2023/10/12 09:40:00;;;;;;;20.83;20.00;;;21.70;99.90;;;;;;5021849;28;20827;-65
2023/10/12 09:42:31;;;;;;;22.47;21.43;;;21.70;99.90;;;;;;5021700;28;20476;-64
2023/10/12 09:45:05;;;;;;;22.73;21.73;;;21.70;99.90;;;;;;5021626;28;20434;-65
2023/10/12 09:47:50;;;;;;;23.10;22.03;;;21.70;99.90;;;;;;5021676;28;20519;-64
2023/10/12 09:50:27;;;;;;;21.73;20.93;;;21.70;99.90;;;;;;5021553;28;20825;-64
2023/10/12 09:53:12;;;;;;;23.87;22.77;;;21.70;99.90;;;;;;5023960;28;20492;-65
2023/10/12 09:55:45;;;;;;;21.57;20.50;;;21.70;99.90;;;;;;5023852;28;20488;-64
2023/10/12 09:58:22;;;;;;;24.30;23.23;;;21.70;99.90;;;;;;5021397;28;20466;-65
2023/10/12 10:01:07;;;;;;;22.23;21.23;;;21.70;99.90;;;;;;5023379;28;20491;-64
2023/10/12 10:03:47;;;;;;;22.10;21.20;;;21.70;99.90;;;;;;5024402;28;20445;-64
2023/10/12 10:06:26;;;;;;;22.50;21.40;;;21.70;99.90;;;;;;5021156;28;20523;-65
2023/10/12 10:09:19;;;;;;;22.57;21.57;;;21.70;99.90;;;;;;5024170;28;20470;-65
2023/10/12 10:11:57;;;;;;;22.57;21.57;;;21.70;99.90;;;;;;5022812;28;20818;-64
2023/10/12 10:14:26;;;;;;;22.30;21.30;;;21.70;99.90;;;;;;5021037;28;20504;-64
2023/10/12 10:16:59;;;;;;;21.93;20.97;;;21.70;99.90;;;;;;5023382;28;20501;-65
2023/10/12 10:19:29;;;;;;;21.90;20.90;;;21.70;99.90;;;;;;5024445;28;20959;-65
2023/10/12 10:22:10;;;;;;;22.77;21.77;;;21.70;99.90;;;;;;5021076;28;20512;-64
2023/10/12 10:24:50;;;;;;;23.20;22.00;;;21.70;99.90;;;;;;5021106;28;20449;-64
2023/10/12 10:27:18;;;;;;;22.03;21.03;;;21.70;99.90;;;;;;5024343;28;20507;-64
2023/10/12 10:29:52;;;;;;;22.67;21.70;;;21.80;99.90;;;;;;5022589;28;20472;-63
2023/10/12 10:32:29;;;;;;;23.57;22.43;;;21.70;99.90;;;;;;5020692;28;20545;-64
2023/10/12 10:34:59;;;;;;;22.30;21.40;;;21.70;99.90;;;;;;5023393;28;20473;-64
2023/10/12 10:37:47;;;;;;;24.23;23.23;;;21.80;99.90;;;;;;5023783;28;20484;-64
2023/10/12 10:40:17;;;;;;;22.33;21.43;;;21.80;99.90;;;;;;5020728;28;20449;-64
2023/10/12 10:42:57;;;;;;;22.03;21.10;;;21.80;99.90;;;;;;5021705;28;20821;-64
2023/10/12 10:45:26;;;;;;;22.57;21.57;;;21.80;99.90;;;;;;5023777;28;20527;-63
2023/10/12 10:47:56;;;;;;;23.00;21.80;;;21.80;99.90;;;;;;5021361;28;20881;-64
2023/10/12 10:50:24;;;;;;;22.63;21.67;;;21.80;99.90;;;;;;5020449;28;20442;-64
2023/10/12 10:52:59;;;;;;;23.47;22.27;;;21.80;99.90;;;;;;5022416;28;20449;-64
2023/10/12 10:55:31;;;;;;;23.60;22.50;;;21.80;99.90;;;;;;5023617;28;20444;-64
2023/10/12 10:58:00;;;;;;;21.27;20.27;;;21.80;99.90;;;;;;5020518;28;21073;-64
2023/10/12 11:00:35;;;;;;;22.93;21.87;;;21.80;99.90;;;;;;5020357;28;20446;-65
2023/10/12 11:03:04;;;;;;;24.70;23.43;;;21.80;99.90;;;;;;5020193;28;20795;-65
2023/10/12 11:05:31;;;;;;;21.97;21.07;;;21.80;99.90;;;;;;5019321;28;20507;-65
2023/10/12 11:08:18;;;;;;;22.73;21.60;;;21.80;99.90;;;;;;5022897;28;20513;-64
2023/10/12 11:13:26;;;;;;;24.33;23.03;;;21.80;99.90;;;;;;5019753;28;20944;-64
2023/10/12 11:15:55;;;;;;;24.47;23.43;;;21.80;99.90;;;;;;5022065;28;20528;-64
2023/10/12 11:18:24;;;;;;;21.30;20.50;;;21.80;99.90;;;;;;5023409;28;20452;-64
2023/10/12 11:20:57;;;;;;;24.37;23.27;;;21.80;99.90;;;;;;5021286;28;20532;-64
2023/10/12 11:23:24;;;;;;;23.47;22.27;;;21.80;99.90;;;;;;5019752;28;20454;-64
2023/10/12 11:25:55;;;;;;;21.40;20.37;;;21.80;99.90;;;;;;5021847;28;20538;-65
2023/10/12 11:28:23;;;;;;;24.10;22.80;;;21.80;99.90;;;;;;5023391;28;20441;-65
2023/10/12 11:30:51;;;;;;;22.40;21.20;;;21.80;99.90;;;;;;5021333;28;20503;-64
2023/10/12 11:33:28;;;;;;;22.70;21.80;;;21.80;99.90;;;;;;5019530;28;20533;-64
2023/10/12 11:36:00;;;;;;;21.83;20.83;;;21.80;99.90;;;;;;5021866;28;20576;-64
2023/10/12 11:38:28;;;;;;;21.83;20.73;;;21.80;99.90;;;;;;5037118;23;20513;-62
2023/10/12 11:40:55;;;;;;;23.70;22.70;;;21.80;99.90;;;;;;5011469;28;20470;-63
2023/10/12 11:43:28;;;;;;;24.80;23.53;;;21.80;99.90;;;;;;5011347;28;20449;-63
2023/10/12 11:46:01;;;;;;;24.00;22.90;;;21.80;99.90;;;;;;5011505;28;20512;-63
2023/10/12 11:48:30;;;;;;;23.23;22.30;;;21.90;99.90;;;;;;5003426;28;20494;-63
2023/10/12 11:50:58;;;;;;;22.00;20.87;;;21.80;99.90;;;;;;5000537;28;20881;-62
2023/10/12 11:53:25;;;;;;;21.93;20.93;;;21.80;99.90;;;;;;4999930;28;20489;-63
2023/10/12 11:56:04;;;;;;;22.23;21.23;;;21.80;99.90;;;;;;5001818;28;20879;-62
2023/10/12 11:58:32;;;;;;;22.77;21.57;;;21.80;99.90;;;;;;5003301;28;20960;-62
2023/10/12 12:01:00;;;;;;;22.70;21.77;;;21.80;99.90;;;;;;5000365;28;20443;-64
2023/10/12 12:03:29;;;;;;;22.87;21.87;;;21.80;99.90;;;;;;4999711;28;20501;-64
2023/10/12 12:05:56;;;;;;;23.67;22.37;;;21.80;99.90;;;;;;5002357;28;20525;-63
2023/10/12 12:08:25;;;;;;;22.30;21.13;;;21.80;99.90;;;;;;5003250;28;20497;-63
2023/10/12 12:10:55;;;;;;;22.40;21.40;;;21.80;99.90;;;;;;5001252;28;20871;-63
2023/10/12 12:13:23;;;;;;;22.73;21.80;;;21.80;99.90;;;;;;4999600;28;20443;-65
2023/10/12 12:15:53;;;;;;;23.47;22.47;;;21.80;99.90;;;;;;5001115;28;20888;-63
2023/10/12 12:18:20;;;;;;;24.70;23.53;;;21.80;99.90;;;;;;5006876;28;20466;-64
2023/10/12 12:20:51;;;;;;;22.63;21.63;;;21.80;99.90;;;;;;5005686;28;20485;-63
2023/10/12 12:23:18;;;;;;;22.13;21.03;;;21.80;99.90;;;;;;5003401;28;20871;-64
2023/10/12 12:25:45;;;;;;;21.50;20.60;;;21.80;99.90;;;;;;5004259;28;20478;-63
2023/10/12 12:28:14;;;;;;;23.13;22.13;;;21.80;99.90;;;;;;5006777;28;20908;-62
2023/10/12 12:30:51;;;;;;;23.17;21.90;;;21.80;99.90;;;;;;5006294;28;20943;-63
2023/10/12 12:33:18;;;;;;;22.37;21.37;;;21.80;99.90;;;;;;5003125;28;20446;-64
2023/10/12 12:35:48;;;;;;;23.47;22.47;;;21.90;99.90;;;;;;5003961;28;20447;-64
2023/10/12 12:38:34;;;;;;;22.00;21.00;;;21.80;99.90;;;;;;5006404;28;20481;-63
2023/10/12 12:41:05;;;;;;;21.70;20.70;;;21.80;99.90;;;;;;5003445;28;20439;-64
2023/10/12 12:43:33;;;;;;;22.07;21.07;;;21.80;99.90;;;;;;5002936;28;20442;-64
2023/10/12 12:46:00;;;;;;;22.40;21.37;;;21.90;99.90;;;;;;5005695;28;20450;-65
2023/10/12 12:48:27;;;;;;;22.73;21.63;;;21.90;99.90;;;;;;5006364;28;20880;-64
2023/10/12 12:50:55;;;;;;;24.40;22.80;;;21.90;99.90;;;;;;5004402;28;20473;-63
2023/10/12 12:53:22;;;;;;;22.10;21.20;;;21.90;99.90;;;;;;5002786;28;20479;-64
2023/10/12 12:55:49;;;;;;;22.50;21.40;;;21.90;99.90;;;;;;5003991;28;20501;-63
2023/10/12 12:58:17;;;;;;;22.80;21.87;;;21.90;99.90;;;;;;5006042;28;20488;-61
2023/10/12 13:00:46;;;;;;;23.73;22.53;;;21.80;99.90;;;;;;5005495;28;20456;-64
2023/10/12 13:03:13;;;;;;;23.47;22.47;;;21.80;99.90;;;;;;5002670;28;20497;-63
2023/10/12 13:05:40;;;;;;;21.50;20.53;;;21.80;99.90;;;;;;5002815;28;20822;-64
2023/10/12 13:08:11;;;;;;;23.53;22.10;;;21.80;99.90;;;;;;4994825;28;20490;-61
2023/10/12 13:10:38;;;;;;;22.83;21.93;;;21.80;99.90;;;;;;5002686;28;20478;-64
2023/10/12 13:13:06;;;;;;;22.70;21.70;;;21.80;99.90;;;;;;5005610;28;20438;-63
2023/10/12 13:15:41;;;;;;;22.40;21.30;;;21.80;99.90;;;;;;5005887;28;20504;-64
2023/10/12 13:18:14;;;;;;;23.47;22.10;;;21.90;99.90;;;;;;4994581;28;20915;-64
2023/10/12 13:20:46;;;;;;;22.27;21.37;;;21.80;99.90;;;;;;5002449;28;20443;-64